createdAt,value
2022-08-12T00:00:36.103Z,1.73
2022-08-12T00:03:22.141Z,2.08
2022-08-12T00:06:08.977Z,1.95
2022-08-12T00:08:57.674Z,1.80
2022-08-12T00:11:46.442Z,1.80
2022-08-12T00:14:33.776Z,1.52
2022-08-12T00:17:19.472Z,1.88
2022-08-12T00:20:05.397Z,1.80
2022-08-12T00:22:55.234Z,1.65
2022-08-12T00:26:20.797Z,1.75
2022-08-12T00:29:03.750Z,1.80
2022-08-12T00:31:49.151Z,1.65
2022-08-12T00:34:35.315Z,1.70
2022-08-12T00:37:22.782Z,1.77
2022-08-12T00:40:11.050Z,1.80
2022-08-12T00:42:41.792Z,1.70
2022-08-12T00:45:10.480Z,1.70
2022-08-12T00:47:39.366Z,2.15
2022-08-12T00:50:09.811Z,2.08
2022-08-12T00:52:36.723Z,1.92
2022-08-12T00:55:05.825Z,2.00
2022-08-12T00:57:36.614Z,1.88
2022-08-12T01:00:14.306Z,1.80
2022-08-12T01:02:47.328Z,1.90
2022-08-12T01:05:41.916Z,2.03
2022-08-12T01:08:28.919Z,1.80
2022-08-12T01:11:16.360Z,1.90
2022-08-12T01:13:53.404Z,1.60
2022-08-12T01:16:24.161Z,1.85
2022-08-12T01:18:55.019Z,1.70
2022-08-12T01:21:28.123Z,1.70
2022-08-12T01:24:31.417Z,1.83
2022-08-12T01:27:03.407Z,1.83
2022-08-12T01:29:43.765Z,1.75
2022-08-12T01:32:14.617Z,1.83
2022-08-12T01:35:13.562Z,1.80
2022-08-12T01:38:05.905Z,2.13
2022-08-12T01:40:38.666Z,1.92
2022-08-12T01:43:10.143Z,1.70
2022-08-12T01:45:58.341Z,2.10
2022-08-12T01:48:39.746Z,1.60
2022-08-12T01:52:14.988Z,2.17
2022-08-12T01:54:19.711Z,1.98
2022-08-12T01:57:10.983Z,2.00
2022-08-12T02:00:06.595Z,1.75
2022-08-12T02:03:25.873Z,1.95
2022-08-12T02:06:44.892Z,1.80
2022-08-12T02:09:37.098Z,1.95
2022-08-12T02:12:42.938Z,2.00
2022-08-12T02:15:27.512Z,1.70
2022-08-12T02:18:43.654Z,2.28
2022-08-12T02:21:44.104Z,2.22
2022-08-12T02:24:18.675Z,1.83
2022-08-12T02:26:48.667Z,1.70
2022-08-12T02:29:20.111Z,2.13
2022-08-12T02:31:49.899Z,1.70
2022-08-12T02:34:17.562Z,2.00
2022-08-12T02:36:45.657Z,1.73
2022-08-12T02:39:19.043Z,2.20
2022-08-12T02:41:48.676Z,1.65
2022-08-12T02:44:18.052Z,2.00
2022-08-12T02:46:50.317Z,1.70
2022-08-12T02:49:29.584Z,2.22
2022-08-12T02:51:59.792Z,2.13
2022-08-12T02:54:27.623Z,1.80
2022-08-12T02:56:55.028Z,1.92
2022-08-12T02:59:26.394Z,1.88
2022-08-12T03:01:56.821Z,1.50
2022-08-12T03:04:43.653Z,2.10
2022-08-12T03:07:20.169Z,2.38
2022-08-12T03:10:10.624Z,2.17
2022-08-12T03:12:49.410Z,1.80
2022-08-12T03:15:24.659Z,1.83
2022-08-12T03:18:27.299Z,1.90
2022-08-12T03:20:48.020Z,2.08
2022-08-12T03:23:17.342Z,1.73
2022-08-12T03:25:58.686Z,2.05
2022-08-12T03:28:44.146Z,2.00
2022-08-12T03:31:11.535Z,2.13
2022-08-12T03:33:45.612Z,2.20
2022-08-12T03:36:29.623Z,2.63
2022-08-12T03:39:16.113Z,2.58
2022-08-12T03:42:14.283Z,2.85
2022-08-12T03:45:51.895Z,2.40
2022-08-12T03:48:39.677Z,2.45
2022-08-12T03:51:27.031Z,2.47
2022-08-12T03:54:12.990Z,2.53
2022-08-12T03:56:59.098Z,2.67
2022-08-12T03:59:44.423Z,2.30
2022-08-12T04:04:45.150Z,2.20
2022-08-12T04:07:13.464Z,2.42
2022-08-12T04:09:45.863Z,2.85
2022-08-12T04:12:33.267Z,2.40
2022-08-12T04:15:01.852Z,2.58
2022-08-12T04:17:30.068Z,2.72
2022-08-12T04:19:58.820Z,2.30
2022-08-12T04:22:29.394Z,2.60
2022-08-12T04:25:01.236Z,2.53
2022-08-12T04:27:31.491Z,2.90
2022-08-12T04:30:20.997Z,2.40
2022-08-12T04:32:49.869Z,3.42
2022-08-12T04:35:17.230Z,4.43
2022-08-12T04:37:58.184Z,5.90
2022-08-12T04:40:32.495Z,5.20
2022-08-12T04:43:02.987Z,2.70
2022-08-12T04:45:32.989Z,2.50
2022-08-12T04:48:01.962Z,2.65
2022-08-12T04:50:36.009Z,3.10
2022-08-12T04:53:09.146Z,3.35
2022-08-12T04:55:39.073Z,2.80
2022-08-12T04:58:10.207Z,2.38
2022-08-12T05:00:38.485Z,2.78
2022-08-12T05:03:07.637Z,2.50
2022-08-12T05:05:36.808Z,2.42
2022-08-12T05:08:07.793Z,2.33
2022-08-12T05:10:35.570Z,2.15
2022-08-12T05:13:09.254Z,2.45
2022-08-12T05:16:03.818Z,2.30
2022-08-12T05:18:29.384Z,2.90
2022-08-12T05:20:59.021Z,2.30
2022-08-12T05:23:26.700Z,2.10
2022-08-12T05:25:56.919Z,2.58
2022-08-12T05:28:26.911Z,2.30
2022-08-12T05:30:54.618Z,2.65
2022-08-12T05:33:35.591Z,2.35
2022-08-12T05:36:02.530Z,2.30
2022-08-12T05:38:47.972Z,2.33
2022-08-12T05:41:20.830Z,2.22
2022-08-12T05:43:59.884Z,2.70
2022-08-12T05:46:29.210Z,2.05
2022-08-12T05:48:58.857Z,2.35
2022-08-12T05:51:39.788Z,2.47
2022-08-12T05:54:10.631Z,2.53
2022-08-12T05:56:37.935Z,2.15
2022-08-12T05:59:07.683Z,2.42
2022-08-12T06:02:10.841Z,2.60
2022-08-12T06:04:22.880Z,2.20
2022-08-12T06:06:53.213Z,2.67
2022-08-12T06:09:22.354Z,2.15
2022-08-12T06:12:04.084Z,2.08
2022-08-12T06:14:36.242Z,2.00
2022-08-12T06:17:05.188Z,2.80
2022-08-12T06:20:27.695Z,2.60
2022-08-12T06:22:19.406Z,2.42
2022-08-12T06:24:48.273Z,2.30
2022-08-12T06:27:17.634Z,2.22
2022-08-12T06:30:09.915Z,2.28
2022-08-12T06:32:31.538Z,2.10
2022-08-12T06:35:25.990Z,2.55
2022-08-12T06:37:51.395Z,2.70
2022-08-12T06:40:43.874Z,2.13
2022-08-12T06:43:10.866Z,2.38
2022-08-12T06:45:49.142Z,2.70
2022-08-12T06:48:17.345Z,2.20
2022-08-12T06:50:44.371Z,2.45
2022-08-12T06:53:11.587Z,2.60
2022-08-12T06:55:39.301Z,2.42
2022-08-12T06:58:25.229Z,2.13
2022-08-12T07:00:52.410Z,2.05
2022-08-12T07:03:25.612Z,2.15
2022-08-12T07:05:52.972Z,2.10
2022-08-12T07:08:20.169Z,2.03
2022-08-12T07:10:59.216Z,2.20
2022-08-12T07:14:04.734Z,2.00
2022-08-12T07:16:48.449Z,1.90
2022-08-12T07:19:16.205Z,2.20
2022-08-12T07:22:01.681Z,2.28
2022-08-12T07:24:30.470Z,2.30
2022-08-12T07:26:57.388Z,2.40
2022-08-12T07:29:26.011Z,2.17
2022-08-12T07:32:13.802Z,2.13
2022-08-12T07:34:42.273Z,2.33
2022-08-12T07:37:09.623Z,2.20
2022-08-12T07:39:36.598Z,2.10
2022-08-12T07:42:17.143Z,2.40
2022-08-12T07:44:44.026Z,2.88
2022-08-12T07:47:12.662Z,2.60
2022-08-12T07:50:03.209Z,2.30
2022-08-12T07:52:26.546Z,2.60
2022-08-12T07:54:53.896Z,2.67
2022-08-12T07:57:20.964Z,2.20
2022-08-12T07:59:48.251Z,2.20
2022-08-12T08:04:58.117Z,1.95
2022-08-12T08:07:27.422Z,2.00
2022-08-12T08:10:02.553Z,2.40
2022-08-12T08:12:49.061Z,1.98
2022-08-12T08:15:16.714Z,1.95
2022-08-12T08:18:03.726Z,1.70
2022-08-12T08:20:39.550Z,2.03
2022-08-12T08:23:17.401Z,2.42
2022-08-12T08:25:45.718Z,1.70
2022-08-12T08:28:17.095Z,2.10
2022-08-12T08:30:47.725Z,2.00
2022-08-12T08:33:24.713Z,1.80
2022-08-12T08:36:06.691Z,1.77
2022-08-12T08:38:41.656Z,1.50
2022-08-12T08:42:17.156Z,1.50
2022-08-12T08:44:28.401Z,1.48
2022-08-12T08:46:55.651Z,1.40
2022-08-12T08:49:23.341Z,1.38
2022-08-12T08:51:50.424Z,1.40
2022-08-12T08:54:17.582Z,1.08
2022-08-12T08:56:46.196Z,1.08
2022-08-12T08:59:14.240Z,1.20
2022-08-12T09:01:44.328Z,1.67
2022-08-12T09:05:09.006Z,1.42
2022-08-12T09:07:00.662Z,1.30
2022-08-12T09:10:02.698Z,1.45
2022-08-12T09:15:41.678Z,1.30
2022-08-12T09:18:10.968Z,1.20
2022-08-12T09:20:40.499Z,1.27
2022-08-12T09:24:00.665Z,1.13
2022-08-12T09:26:03.742Z,0.90
2022-08-12T09:28:37.292Z,0.90
2022-08-12T09:32:03.283Z,1.00
2022-08-12T09:34:25.722Z,0.98
2022-08-12T09:36:58.100Z,0.80
2022-08-12T09:40:05.580Z,0.90
2022-08-12T09:42:45.984Z,0.90
2022-08-12T09:45:23.283Z,0.93
2022-08-12T09:47:59.038Z,0.80
2022-08-12T09:50:28.174Z,0.95
2022-08-12T09:53:16.101Z,1.10
2022-08-12T09:55:59.689Z,1.00
2022-08-12T09:58:59.584Z,1.00
2022-08-12T10:01:24.434Z,1.73
2022-08-12T10:04:03.463Z,1.25
2022-08-12T10:06:36.594Z,1.10
2022-08-12T10:09:15.611Z,1.30
2022-08-12T10:12:10.173Z,0.90
2022-08-12T10:14:50.044Z,1.40
2022-08-12T10:17:21.591Z,1.00
2022-08-12T10:19:52.103Z,1.20
2022-08-12T10:22:37.228Z,1.25
2022-08-12T10:26:35.281Z,0.80
2022-08-12T10:28:41.302Z,1.20
2022-08-12T10:31:28.147Z,1.83
2022-08-12T10:34:26.285Z,1.15
2022-08-12T10:37:00.412Z,1.23
2022-08-12T10:40:01.132Z,0.90
2022-08-12T10:42:57.919Z,1.40
2022-08-12T10:45:30.563Z,1.80
2022-08-12T10:48:07.696Z,1.77
2022-08-12T10:51:02.399Z,1.58
2022-08-12T10:53:45.003Z,1.35
2022-08-12T10:56:18.397Z,1.00
2022-08-12T10:58:46.832Z,1.20
2022-08-12T11:01:25.763Z,1.25
2022-08-12T11:04:24.605Z,1.35
2022-08-12T11:07:08.650Z,1.30
2022-08-12T11:10:00.385Z,1.90
2022-08-12T11:12:56.457Z,1.02
2022-08-12T11:15:24.374Z,2.45
2022-08-12T11:18:07.711Z,1.08
2022-08-12T11:20:39.596Z,1.48
2022-08-12T11:23:25.089Z,1.20
2022-08-12T11:25:57.309Z,1.48
2022-08-12T11:28:33.298Z,1.13
2022-08-12T11:31:03.241Z,1.00
2022-08-12T11:34:06.191Z,1.10
2022-08-12T11:36:18.208Z,1.30
2022-08-12T11:38:51.383Z,0.90
2022-08-12T11:41:28.099Z,1.20
2022-08-12T11:44:35.651Z,1.42
2022-08-12T11:46:54.766Z,1.15
2022-08-12T11:49:31.364Z,1.00
2022-08-12T11:52:04.217Z,1.40
2022-08-12T11:54:51.122Z,1.00
2022-08-12T11:58:14.667Z,0.85
2022-08-12T12:02:53.387Z,0.90
2022-08-12T12:05:20.658Z,0.98
2022-08-12T12:08:41.166Z,1.10
2022-08-12T12:10:42.137Z,1.42
2022-08-12T12:13:22.875Z,0.90
2022-08-12T12:15:50.766Z,1.10
2022-08-12T12:18:32.158Z,1.00
2022-08-12T12:21:08.256Z,1.27
2022-08-12T12:23:36.568Z,1.00
2022-08-12T12:26:07.955Z,1.10
2022-08-12T12:28:37.829Z,1.00
2022-08-12T12:31:14.877Z,1.25
2022-08-12T12:33:57.811Z,1.20
2022-08-12T12:36:30.606Z,1.23
2022-08-12T12:39:00.213Z,1.00
2022-08-12T12:42:43.379Z,1.40
2022-08-12T12:44:26.082Z,1.20
2022-08-12T12:46:57.357Z,0.93
2022-08-12T12:49:27.441Z,1.08
2022-08-12T12:52:18.780Z,1.00
2022-08-12T12:54:52.470Z,0.80
2022-08-12T12:57:36.399Z,0.95
2022-08-12T13:00:15.147Z,0.98
2022-08-12T13:02:50.850Z,0.93
2022-08-12T13:05:29.157Z,1.05
2022-08-12T13:08:01.750Z,1.13
2022-08-12T13:10:36.481Z,1.15
2022-08-12T13:14:09.204Z,1.40
2022-08-12T13:15:53.862Z,1.00
2022-08-12T13:18:30.839Z,1.25
2022-08-12T13:20:59.528Z,1.02
2022-08-12T13:23:36.370Z,1.10
2022-08-12T13:26:05.155Z,0.85
2022-08-12T13:28:32.717Z,0.93
2022-08-12T13:31:00.173Z,0.80
2022-08-12T13:33:29.315Z,1.20
2022-08-12T13:36:16.253Z,1.02
2022-08-12T13:38:54.619Z,1.08
2022-08-12T13:41:34.234Z,0.70
2022-08-12T13:44:04.588Z,0.70
2022-08-12T13:46:32.208Z,1.13
2022-08-12T13:48:59.057Z,1.15
2022-08-12T13:51:26.083Z,1.23
2022-08-12T13:54:13.928Z,1.00
2022-08-12T13:56:40.982Z,1.00
2022-08-12T13:59:08.540Z,0.80
2022-08-12T14:01:40.141Z,1.00
2022-08-12T14:04:11.549Z,0.95
2022-08-12T14:06:40.774Z,1.05
2022-08-12T14:09:15.636Z,1.08
2022-08-12T14:11:54.806Z,0.90
2022-08-12T14:14:31.268Z,0.90
2022-08-12T14:17:09.779Z,1.00
2022-08-12T14:20:00.693Z,0.80
2022-08-12T14:22:28.390Z,0.82
2022-08-12T14:24:58.390Z,1.10
2022-08-12T14:28:03.756Z,0.90
2022-08-12T14:30:29.514Z,0.90
2022-08-12T14:32:58.451Z,0.90
2022-08-12T14:35:25.259Z,0.95
2022-08-12T14:37:58.107Z,1.17
2022-08-12T14:40:29.063Z,1.10
2022-08-12T14:42:59.710Z,0.95
2022-08-12T14:45:44.715Z,1.35
2022-08-12T14:48:19.616Z,1.08
2022-08-12T14:52:15.900Z,0.93
2022-08-12T14:59:57.093Z,1.20
2022-08-12T15:05:03.438Z,0.90
2022-08-12T15:07:33.319Z,1.05
2022-08-12T15:10:32.474Z,0.90
2022-08-12T15:13:07.544Z,0.90
2022-08-12T15:15:44.243Z,0.95
2022-08-12T15:18:21.701Z,1.08
2022-08-12T15:20:52.170Z,0.80
2022-08-12T15:23:22.589Z,1.17
2022-08-12T15:26:02.838Z,1.00
2022-08-12T15:28:35.635Z,1.08
2022-08-12T15:31:21.350Z,1.00
2022-08-12T15:33:55.167Z,0.80
2022-08-12T15:36:36.580Z,0.90
2022-08-12T15:39:16.766Z,1.00
2022-08-12T15:41:50.243Z,0.95
2022-08-12T15:44:38.596Z,1.10
2022-08-12T15:47:06.306Z,1.05
2022-08-12T15:49:43.405Z,1.40
2022-08-12T15:52:28.067Z,1.23
2022-08-12T15:54:58.413Z,0.90
2022-08-12T15:57:34.242Z,0.90
2022-08-12T16:00:07.395Z,0.90
2022-08-12T16:02:50.015Z,0.80
2022-08-12T16:06:17.080Z,0.80
2022-08-12T16:08:18.456Z,0.80
2022-08-12T16:10:51.046Z,0.82
2022-08-12T16:13:32.529Z,0.70
2022-08-12T16:16:23.330Z,0.90
2022-08-12T16:18:58.770Z,0.85
2022-08-12T16:21:50.436Z,0.85
2022-08-12T16:24:18.623Z,0.70
2022-08-12T16:26:45.603Z,0.77
2022-08-12T16:29:23.638Z,0.68
2022-08-12T16:31:50.543Z,0.80
2022-08-12T16:34:25.909Z,0.73
2022-08-12T16:37:09.896Z,0.95
2022-08-12T16:40:00.404Z,0.80
2022-08-12T16:42:28.285Z,0.90
2022-08-12T16:45:03.088Z,0.70
2022-08-12T16:47:57.399Z,1.00
2022-08-12T16:50:30.926Z,0.73
2022-08-12T16:52:59.905Z,0.73
2022-08-12T16:55:42.318Z,0.70
2022-08-12T16:58:28.224Z,0.80
2022-08-12T17:01:03.044Z,0.85
2022-08-12T17:03:36.603Z,0.90
2022-08-12T17:06:06.365Z,0.82
2022-08-12T17:08:33.937Z,0.70
2022-08-12T17:11:00.813Z,0.90
2022-08-12T17:13:33.871Z,0.80
2022-08-12T17:16:05.827Z,0.95
2022-08-12T17:18:44.189Z,0.90
2022-08-12T17:21:41.399Z,0.90
2022-08-12T17:24:19.606Z,0.90
2022-08-12T17:26:53.673Z,0.88
2022-08-12T17:29:23.920Z,0.80
2022-08-12T17:32:02.871Z,0.80
2022-08-12T17:34:51.021Z,1.15
2022-08-12T17:37:18.014Z,0.90
2022-08-12T17:40:12.567Z,0.95
2022-08-12T17:42:47.371Z,1.00
2022-08-12T17:45:19.381Z,1.08
2022-08-12T17:48:01.216Z,0.93
2022-08-12T17:50:32.191Z,1.00
2022-08-12T17:53:03.170Z,0.90
2022-08-12T17:55:40.263Z,0.93
2022-08-12T17:58:21.606Z,0.90
2022-08-12T18:01:03.397Z,0.90
2022-08-12T18:04:05.788Z,1.00
2022-08-12T18:06:18.195Z,0.80
2022-08-12T18:08:54.383Z,0.82
2022-08-12T18:12:04.069Z,0.80
2022-08-12T18:14:30.071Z,1.00
2022-08-12T18:17:01.077Z,0.90
2022-08-12T18:19:34.044Z,0.90
2022-08-12T18:22:22.098Z,0.73
2022-08-12T18:25:06.327Z,1.02
2022-08-12T18:27:44.872Z,0.70
2022-08-12T18:30:20.875Z,0.77
2022-08-12T18:33:05.193Z,0.85
2022-08-12T18:35:47.274Z,0.77
2022-08-12T18:38:24.993Z,1.10
2022-08-12T18:41:34.391Z,1.27
2022-08-12T18:44:11.366Z,1.38
2022-08-12T18:46:55.583Z,0.82
2022-08-12T18:49:33.521Z,1.10
2022-08-12T18:52:07.801Z,1.00
2022-08-12T18:54:52.275Z,1.00
2022-08-12T18:57:45.841Z,1.13
2022-08-12T19:00:21.581Z,0.90
2022-08-12T19:02:53.018Z,0.98
2022-08-12T19:05:20.701Z,1.05
2022-08-12T19:08:00.776Z,0.93
2022-08-12T19:10:30.899Z,1.20
2022-08-12T19:13:23.004Z,1.13
2022-08-12T19:15:54.672Z,1.10
2022-08-12T19:18:26.131Z,1.05
2022-08-12T19:20:58.830Z,1.00
2022-08-12T19:23:35.233Z,0.95
2022-08-12T19:26:05.175Z,1.02
2022-08-12T19:28:36.522Z,1.00
2022-08-12T19:31:57.999Z,1.13
2022-08-12T19:35:53.785Z,0.88
2022-08-12T19:38:03.059Z,1.10
2022-08-12T19:40:31.199Z,1.00
2022-08-12T19:43:18.939Z,0.88
2022-08-12T19:45:51.427Z,1.17
2022-08-12T19:48:23.712Z,1.13
2022-08-12T19:50:56.630Z,1.20
2022-08-12T19:53:27.641Z,1.08
2022-08-12T19:55:57.176Z,1.10
2022-08-12T19:58:25.500Z,1.10
2022-08-12T20:00:55.242Z,1.02
2022-08-12T20:03:38.105Z,1.10
2022-08-12T20:06:14.129Z,1.25
2022-08-12T20:08:49.228Z,1.10
2022-08-12T20:12:11.336Z,1.00
2022-08-12T20:14:19.840Z,1.15
2022-08-12T20:16:57.714Z,0.95
2022-08-12T20:20:01.701Z,1.05
2022-08-12T20:22:29.751Z,1.23
2022-08-12T20:25:10.453Z,1.15
2022-08-12T20:28:04.396Z,1.20
2022-08-12T20:30:52.739Z,1.10
2022-08-12T20:33:23.107Z,1.20
2022-08-12T20:36:13.812Z,1.20
2022-08-12T20:38:46.634Z,1.20
2022-08-12T20:41:16.448Z,1.42
2022-08-12T20:43:49.334Z,1.30
2022-08-12T20:46:19.336Z,1.40
2022-08-12T20:48:55.369Z,1.10
2022-08-12T20:51:28.133Z,1.25
2022-08-12T20:54:15.107Z,0.88
2022-08-12T20:56:45.326Z,1.45
2022-08-12T20:59:20.219Z,1.50
2022-08-12T21:01:49.031Z,1.20
2022-08-12T21:04:36.876Z,1.13
2022-08-12T21:07:10.449Z,1.45
2022-08-12T21:12:28.002Z,1.30
2022-08-12T21:15:23.614Z,1.50
2022-08-12T21:18:09.733Z,1.30
2022-08-12T21:20:52.465Z,1.30
2022-08-12T21:23:23.735Z,1.40
2022-08-12T21:25:56.283Z,1.30
2022-08-12T21:28:27.470Z,1.58
2022-08-12T21:31:11.342Z,1.45
2022-08-12T21:34:06.696Z,1.50
2022-08-12T21:36:34.235Z,1.15
2022-08-12T21:39:21.053Z,1.50
2022-08-12T21:41:55.741Z,1.42
2022-08-12T21:45:44.397Z,2.58
2022-08-12T21:47:21.211Z,1.35
2022-08-12T21:50:03.500Z,1.30
2022-08-12T21:55:18.810Z,1.40
2022-08-12T21:57:53.555Z,1.38
2022-08-12T22:00:32.934Z,1.40
2022-08-12T22:03:54.953Z,1.40
2022-08-12T22:06:20.232Z,1.52
2022-08-12T22:09:02.611Z,1.38
2022-08-12T22:11:42.407Z,1.58
2022-08-12T22:14:21.904Z,1.55
2022-08-12T22:16:53.462Z,1.50
2022-08-12T22:19:22.780Z,1.30
2022-08-12T22:21:54.637Z,1.30
2022-08-12T22:24:29.705Z,1.70
2022-08-12T22:27:18.265Z,1.30
2022-08-12T22:30:16.644Z,1.58
2022-08-12T22:32:49.957Z,1.48
2022-08-12T22:35:55.218Z,1.58
2022-08-12T22:38:25.162Z,1.45
2022-08-12T22:41:02.605Z,1.50
2022-08-12T22:44:00.897Z,1.40
2022-08-12T22:46:32.712Z,1.55
2022-08-12T22:48:59.533Z,1.50
2022-08-12T22:51:27.059Z,1.40
2022-08-12T22:54:05.167Z,1.40
2022-08-12T22:56:37.325Z,1.33
2022-08-12T22:59:04.543Z,1.85
2022-08-12T23:01:52.481Z,1.60
2022-08-12T23:04:28.501Z,1.60
2022-08-12T23:07:00.073Z,1.80
2022-08-12T23:09:48.437Z,1.85
2022-08-12T23:12:40.769Z,1.77
2022-08-12T23:15:13.257Z,1.85
2022-08-12T23:17:41.630Z,1.80
2022-08-12T23:20:11.450Z,1.70
2022-08-12T23:22:40.247Z,1.50
2022-08-12T23:25:18.949Z,1.63
2022-08-12T23:28:29.317Z,1.70
2022-08-12T23:34:00.080Z,2.13
2022-08-12T23:36:17.732Z,1.77
2022-08-12T23:39:01.988Z,1.80
2022-08-12T23:41:29.440Z,1.85
2022-08-12T23:44:19.597Z,1.80
2022-08-12T23:47:00.473Z,2.10
2022-08-12T23:49:58.183Z,1.83
2022-08-12T23:52:16.378Z,1.77
2022-08-12T23:54:58.294Z,1.70
2022-08-12T23:57:26.526Z,1.83
